createdAt,value
2023-01-09T00:04:16.435Z,40.50
2023-01-09T00:09:18.672Z,40.20
2023-01-09T00:14:22.690Z,38.35
2023-01-09T00:19:24.564Z,35.35
2023-01-09T00:24:26.260Z,36.77
2023-01-09T00:29:28.272Z,35.50
2023-01-09T00:34:30.024Z,38.67
2023-01-09T00:39:31.873Z,37.90
2023-01-09T00:44:39.401Z,37.72
2023-01-09T00:49:43.924Z,37.15
2023-01-09T00:54:46.269Z,37.40
2023-01-09T00:59:47.924Z,36.17
2023-01-09T01:05:08.315Z,40.20
2023-01-09T01:10:20.258Z,40.28
2023-01-09T01:15:21.933Z,37.50
2023-01-09T01:20:23.579Z,37.05
2023-01-09T01:25:25.326Z,38.28
2023-01-09T01:30:27.909Z,36.83
2023-01-09T01:35:29.643Z,34.67
2023-01-09T01:40:31.430Z,32.92
2023-01-09T01:45:34.215Z,35.10
2023-01-09T01:55:50.798Z,33.33
2023-01-09T02:00:52.555Z,36.63
2023-01-09T02:05:54.382Z,34.28
2023-01-09T02:10:56.443Z,33.73
2023-01-09T02:16:27.418Z,35.03
2023-01-09T02:22:01.810Z,36.10
2023-01-09T02:27:22.136Z,33.25
2023-01-09T02:32:29.671Z,33.83
2023-01-09T02:37:41.304Z,36.15
2023-01-09T02:42:45.501Z,34.45
2023-01-09T02:47:47.622Z,34.40
2023-01-09T02:53:14.258Z,33.33
2023-01-09T02:58:43.573Z,30.45
2023-01-09T03:03:45.248Z,29.92
2023-01-09T03:08:52.950Z,26.63
2023-01-09T03:13:57.093Z,28.77
2023-01-09T03:19:00.841Z,26.45
2023-01-09T03:24:02.880Z,24.73
2023-01-09T03:29:04.680Z,24.83
2023-01-09T03:34:06.445Z,23.35
2023-01-09T03:39:08.200Z,21.70
2023-01-09T03:44:09.847Z,22.77
2023-01-09T03:49:11.780Z,23.00
2023-01-09T03:54:13.450Z,22.07
2023-01-09T03:59:15.157Z,23.15
2023-01-09T04:04:16.856Z,21.23
2023-01-09T04:09:18.854Z,24.27
2023-01-09T04:14:20.680Z,22.05
2023-01-09T04:19:22.459Z,23.23
2023-01-09T04:24:24.125Z,23.90
2023-01-09T04:29:25.983Z,22.92
2023-01-09T04:34:27.665Z,24.25
2023-01-09T04:39:29.382Z,29.35
2023-01-09T04:44:31.170Z,28.13
2023-01-09T04:49:32.949Z,29.92
2023-01-09T04:54:34.706Z,32.28
2023-01-09T04:59:36.418Z,30.67
2023-01-09T05:04:38.146Z,29.55
2023-01-09T05:09:39.864Z,28.30
2023-01-09T05:14:41.524Z,39.38
2023-01-09T05:19:45.430Z,38.30
2023-01-09T05:24:47.089Z,29.40
2023-01-09T05:29:48.793Z,31.27
2023-01-09T05:34:50.468Z,30.63
2023-01-09T05:39:52.127Z,24.45
2023-01-09T05:44:53.840Z,15.48
2023-01-09T05:49:58.283Z,16.92
2023-01-09T05:55:00.217Z,12.57
2023-01-09T06:00:02.068Z,10.18
2023-01-09T06:05:09.256Z,9.07
2023-01-09T06:10:12.973Z,7.35
2023-01-09T06:15:15.528Z,8.20
2023-01-09T06:20:17.286Z,5.32
2023-01-09T06:25:19.209Z,5.90
2023-01-09T06:30:21.081Z,5.23
2023-01-09T06:35:22.790Z,4.30
2023-01-09T06:40:24.482Z,5.47
2023-01-09T06:45:26.187Z,3.08
2023-01-09T06:50:27.961Z,4.88
2023-01-09T06:55:29.907Z,3.63
2023-01-09T07:00:31.684Z,2.73
2023-01-09T07:05:40.048Z,2.63
2023-01-09T07:10:42.829Z,2.92
2023-01-09T07:15:44.504Z,2.67
2023-01-09T07:20:46.675Z,3.53
2023-01-09T07:25:50.991Z,2.10
2023-01-09T07:30:52.740Z,2.50
2023-01-09T07:35:54.579Z,3.50
2023-01-09T07:40:56.297Z,2.58
2023-01-09T07:45:58.132Z,2.35
2023-01-09T07:50:59.866Z,1.95
2023-01-09T07:56:01.775Z,2.43
2023-01-09T08:01:03.571Z,2.17
2023-01-09T08:06:05.621Z,2.33
2023-01-09T08:11:07.245Z,3.17
2023-01-09T08:16:09.057Z,3.60
2023-01-09T08:21:14.342Z,5.03
2023-01-09T08:26:16.137Z,4.65
2023-01-09T08:31:17.840Z,2.22
2023-01-09T08:36:19.807Z,2.95
2023-01-09T08:41:40.481Z,2.13
2023-01-09T08:47:01.327Z,1.05
2023-01-09T08:52:04.453Z,2.30
2023-01-09T08:57:07.099Z,3.95
2023-01-09T09:02:14.831Z,2.05
2023-01-09T09:07:16.590Z,2.55
2023-01-09T09:12:18.312Z,6.57
2023-01-09T09:17:20.099Z,2.45
2023-01-09T09:22:21.809Z,3.05
2023-01-09T09:27:23.561Z,3.47
2023-01-09T09:32:25.309Z,2.85
2023-01-09T09:37:27.179Z,3.05
2023-01-09T09:43:17.012Z,2.28
2023-01-09T09:48:44.091Z,2.10
2023-01-09T09:54:18.612Z,2.38
2023-01-09T09:59:29.294Z,2.55
2023-01-09T10:04:33.677Z,2.13
2023-01-09T10:10:05.071Z,4.28
2023-01-09T10:15:17.221Z,2.22
2023-01-09T10:20:25.098Z,2.13
2023-01-09T10:25:49.984Z,2.50
2023-01-09T10:31:11.349Z,7.15
2023-01-09T10:36:30.286Z,3.17
2023-01-09T10:41:39.390Z,4.80
2023-01-09T10:46:53.570Z,3.65
2023-01-09T10:52:15.670Z,8.52
2023-01-09T10:57:24.121Z,4.27
2023-01-09T11:02:30.720Z,4.90
2023-01-09T11:07:39.092Z,5.07
2023-01-09T11:12:41.933Z,5.07
2023-01-09T11:17:44.353Z,4.97
2023-01-09T11:22:57.830Z,4.68
2023-01-09T11:28:02.203Z,5.03
2023-01-09T11:33:24.617Z,5.63
2023-01-09T11:38:27.370Z,5.28
2023-01-09T11:43:38.163Z,3.38
2023-01-09T11:48:54.728Z,6.00
2023-01-09T11:54:14.752Z,3.70
2023-01-09T11:59:24.633Z,4.32
2023-01-09T12:04:32.378Z,7.18
2023-01-09T12:09:46.643Z,5.45
2023-01-09T12:15:25.374Z,6.05
2023-01-09T12:20:27.115Z,4.55
2023-01-09T12:25:29.224Z,5.70
2023-01-09T12:30:46.493Z,3.40
2023-01-09T12:36:08.696Z,7.32
2023-01-09T12:41:33.375Z,5.25
2023-01-09T12:47:13.021Z,6.97
2023-01-09T12:52:34.793Z,4.78
2023-01-09T12:57:46.230Z,8.27
2023-01-09T13:03:03.812Z,4.55
2023-01-09T13:08:24.402Z,6.20
2023-01-09T13:13:38.979Z,5.28
2023-01-09T13:18:48.741Z,7.35
2023-01-09T13:24:32.233Z,5.53
2023-01-09T13:34:46.544Z,6.65
2023-01-09T13:40:15.080Z,4.47
2023-01-09T13:45:26.152Z,4.70
2023-01-09T13:50:27.956Z,4.53
2023-01-09T13:55:35.643Z,6.00
2023-01-09T14:00:38.090Z,6.20
2023-01-09T14:05:39.766Z,5.63
2023-01-09T14:10:44.168Z,5.85
2023-01-09T14:15:47.078Z,5.47
2023-01-09T14:25:59.924Z,6.05
2023-01-09T14:31:05.083Z,7.72
2023-01-09T14:36:15.836Z,6.20
2023-01-09T14:41:51.772Z,5.82
2023-01-09T14:46:55.596Z,7.88
2023-01-09T14:52:00.516Z,4.88
2023-01-09T14:57:02.550Z,7.97
2023-01-09T15:02:04.335Z,8.23
2023-01-09T15:07:06.656Z,6.70
2023-01-09T15:12:13.041Z,5.00
2023-01-09T15:17:34.131Z,4.43
2023-01-09T15:22:37.448Z,9.18
2023-01-09T15:27:49.612Z,7.55
2023-01-09T15:32:52.372Z,6.97
2023-01-09T15:37:56.444Z,9.52
2023-01-09T15:42:59.474Z,7.25
2023-01-09T15:48:19.731Z,7.72
2023-01-09T15:53:24.347Z,11.18
2023-01-09T15:58:37.554Z,7.63
2023-01-09T16:03:39.361Z,5.22
2023-01-09T16:08:47.948Z,4.90
2023-01-09T16:13:50.483Z,5.60
2023-01-09T16:18:53.920Z,6.82
2023-01-09T16:24:01.957Z,5.57
2023-01-09T16:29:26.421Z,5.75
2023-01-09T16:34:28.348Z,5.25
2023-01-09T16:39:30.007Z,4.03
2023-01-09T16:44:31.844Z,4.15
2023-01-09T16:49:33.762Z,4.65
2023-01-09T16:54:35.423Z,4.50
2023-01-09T16:59:37.241Z,4.32
2023-01-09T17:04:38.941Z,3.75
2023-01-09T17:09:41.092Z,6.22
2023-01-09T17:14:42.878Z,4.33
2023-01-09T17:19:46.695Z,3.97
2023-01-09T17:25:08.834Z,5.45
2023-01-09T17:30:18.847Z,5.50
2023-01-09T17:35:21.106Z,6.20
2023-01-09T17:40:23.443Z,3.17
2023-01-09T17:45:25.431Z,5.05
2023-01-09T17:50:33.666Z,4.60
2023-01-09T17:55:36.241Z,4.47
2023-01-09T18:00:38.007Z,4.50
2023-01-09T18:05:39.647Z,8.63
2023-01-09T18:10:42.972Z,4.35
2023-01-09T18:15:47.498Z,5.82
2023-01-09T18:20:50.099Z,3.42
2023-01-09T18:25:51.852Z,5.07
2023-01-09T18:30:53.524Z,3.90
2023-01-09T18:35:55.663Z,4.40
2023-01-09T18:41:01.842Z,6.77
2023-01-09T18:46:06.944Z,4.93
2023-01-09T18:51:08.894Z,4.32
2023-01-09T18:56:10.619Z,4.70
2023-01-09T19:01:13.529Z,6.93
2023-01-09T19:06:15.270Z,5.60
2023-01-09T19:11:18.648Z,6.53
2023-01-09T19:16:20.482Z,5.55
2023-01-09T19:21:23.660Z,4.77
2023-01-09T19:26:27.478Z,5.45
2023-01-09T19:31:29.351Z,6.85
2023-01-09T19:36:31.089Z,6.22
2023-01-09T19:41:32.899Z,5.97
2023-01-09T19:46:35.505Z,7.28
2023-01-09T19:51:37.488Z,5.03
2023-01-09T19:56:40.881Z,8.83
2023-01-09T20:01:42.916Z,5.65
2023-01-09T20:06:49.313Z,3.53
2023-01-09T20:11:51.189Z,4.90
2023-01-09T20:16:54.206Z,7.40
2023-01-09T20:21:55.993Z,5.63
2023-01-09T20:26:57.711Z,5.38
2023-01-09T20:32:01.396Z,4.47
2023-01-09T20:37:03.108Z,5.57
2023-01-09T20:42:05.012Z,4.90
2023-01-09T20:47:06.685Z,3.88
2023-01-09T20:52:08.333Z,7.43
2023-01-09T20:57:10.662Z,5.10
2023-01-09T21:02:14.657Z,4.47
2023-01-09T21:07:16.862Z,7.30
2023-01-09T21:12:37.550Z,4.25
2023-01-09T21:17:40.247Z,8.45
2023-01-09T21:22:42.167Z,4.90
2023-01-09T21:27:46.273Z,5.07
2023-01-09T21:32:47.952Z,3.40
2023-01-09T21:37:49.692Z,3.83
2023-01-09T21:43:10.362Z,4.75
2023-01-09T21:48:12.095Z,6.93
2023-01-09T21:53:13.915Z,6.45
2023-01-09T21:58:15.619Z,3.95
2023-01-09T22:03:18.814Z,5.35
2023-01-09T22:08:20.620Z,7.80
2023-01-09T22:13:22.296Z,4.38
2023-01-09T22:18:23.987Z,4.78
2023-01-09T22:23:25.953Z,6.57
2023-01-09T22:28:27.559Z,4.97
2023-01-09T22:33:29.227Z,3.88
2023-01-09T22:38:31.396Z,6.10
2023-01-09T22:43:33.274Z,3.75
2023-01-09T22:48:35.103Z,5.53
2023-01-09T22:53:36.752Z,4.53
2023-01-09T22:58:38.383Z,4.63
2023-01-09T23:03:40.365Z,4.00
2023-01-09T23:08:42.719Z,4.27
2023-01-09T23:13:44.537Z,3.53
2023-01-09T23:18:46.188Z,3.53
2023-01-09T23:23:47.868Z,3.03
2023-01-09T23:28:49.811Z,3.90
2023-01-09T23:33:51.861Z,3.53
2023-01-09T23:38:53.593Z,4.60
2023-01-09T23:43:55.286Z,3.13
2023-01-09T23:48:56.970Z,3.55
2023-01-09T23:53:59.032Z,3.92
2023-01-09T23:59:02.073Z,4.38
